Time;durP1;ratioP1;P1;durP2;ratioP2;P2;SDS_P1;SDS_P2;PMS_P1;PMS_P2;Temp;Humidity;BMP_temperature;BMP_pressure;BME280_temperature;BME280_humidity;BME280_pressure;Samples;Min_cycle;Max_cycle;Signal;HPM_P1;HPM_P2
2021/08/14 00:02:19;;;;;;;7.50;4.35;;;17.70;99.90;;;;;;2631115;47;20146;-80
2021/08/14 00:04:48;;;;;;;4.35;3.85;;;17.80;99.90;;;;;;2630866;54;20230;-79
2021/08/14 00:07:17;;;;;;;8.07;4.53;;;17.70;99.90;;;;;;2630104;54;20169;-78
2021/08/14 00:09:46;;;;;;;6.50;4.07;;;17.40;99.90;;;;;;2631165;54;20201;-77
2021/08/14 00:12:14;;;;;;;5.10;4.10;;;17.40;99.90;;;;;;2630905;47;21181;-78
2021/08/14 00:14:45;;;;;;;7.30;4.20;;;17.60;99.90;;;;;;2630721;54;20203;-78
2021/08/14 00:17:14;;;;;;;5.03;3.95;;;17.30;99.90;;;;;;2631056;54;20172;-77
2021/08/14 00:19:42;;;;;;;5.50;3.90;;;17.10;99.90;;;;;;2631027;54;20145;-78
2021/08/14 00:22:11;;;;;;;7.45;4.45;;;17.20;99.90;;;;;;2629007;54;20275;-77
2021/08/14 00:24:41;;;;;;;4.57;3.63;;;17.30;99.90;;;;;;2630627;47;20192;-79
2021/08/14 00:27:10;;;;;;;3.20;2.88;;;17.60;99.90;;;;;;2630789;47;20197;-78
2021/08/14 00:29:40;;;;;;;4.22;3.53;;;18.00;99.90;;;;;;2631061;46;20881;-79
2021/08/14 00:32:17;;;;;;;4.35;3.90;;;18.30;99.90;;;;;;2631251;47;20136;-78
2021/08/14 00:34:45;;;;;;;6.22;3.88;;;18.50;99.90;;;;;;2635964;39;20738;-79
2021/08/14 00:37:14;;;;;;;7.30;4.38;;;18.20;99.90;;;;;;2631175;47;20981;-77
2021/08/14 00:39:43;;;;;;;4.93;4.07;;;17.70;99.90;;;;;;2630907;47;20259;-77
2021/08/14 00:42:12;;;;;;;11.43;3.50;;;17.60;99.90;;;;;;2630349;47;20153;-77
2021/08/14 00:44:41;;;;;;;7.22;4.47;;;17.30;99.90;;;;;;2629822;47;20187;-77
2021/08/14 00:47:09;;;;;;;8.75;4.07;;;17.20;99.90;;;;;;2630394;47;20152;-79
2021/08/14 00:49:40;;;;;;;5.13;3.95;;;17.30;99.90;;;;;;2630541;47;20293;-79
2021/08/14 00:52:09;;;;;;;4.05;3.28;;;17.40;99.90;;;;;;2629595;47;20165;-78
2021/08/14 00:54:38;;;;;;;6.40;3.50;;;17.60;99.90;;;;;;2630865;46;20200;-78
2021/08/14 00:57:07;;;;;;;6.32;3.72;;;17.70;99.90;;;;;;2630952;54;20133;-78
2021/08/14 00:59:36;;;;;;;4.18;3.20;;;17.60;99.90;;;;;;2630566;47;20209;-78
2021/08/14 01:02:06;;;;;;;5.78;3.30;;;17.30;99.90;;;;;;2630907;47;20160;-79
2021/08/14 01:04:35;;;;;;;9.80;3.95;;;17.20;99.90;;;;;;2630800;54;20169;-78
2021/08/14 01:07:06;;;;;;;6.80;4.18;;;16.90;99.90;;;;;;2631001;47;20168;-78
2021/08/14 01:09:35;;;;;;;7.10;3.72;;;16.70;99.90;;;;;;2631100;54;20188;-78
2021/08/14 01:12:04;;;;;;;7.25;3.95;;;16.70;99.90;;;;;;2630697;47;20156;-78
2021/08/14 01:14:33;;;;;;;5.57;3.35;;;16.70;99.90;;;;;;2630763;54;20152;-78
2021/08/14 01:17:03;;;;;;;5.07;3.00;;;16.70;99.90;;;;;;2630592;54;20133;-79
2021/08/14 01:19:32;;;;;;;3.72;3.10;;;16.90;99.90;;;;;;2631019;54;20149;-79
2021/08/14 01:22:03;;;;;;;5.55;3.28;;;17.20;99.90;;;;;;2630985;54;20136;-79
2021/08/14 01:24:38;;;;;;;3.85;3.15;;;17.40;99.90;;;;;;2630610;47;20169;-78
2021/08/14 01:27:09;;;;;;;6.63;3.45;;;17.60;99.90;;;;;;2630959;47;20197;-78
2021/08/14 01:29:38;;;;;;;5.43;2.83;;;17.60;99.90;;;;;;2631028;54;20133;-79
2021/08/14 01:32:08;;;;;;;6.25;3.85;;;17.50;99.90;;;;;;2630830;47;20153;-79
2021/08/14 01:34:37;;;;;;;4.97;3.22;;;17.40;99.90;;;;;;2630367;54;20249;-78
2021/08/14 01:37:08;;;;;;;5.65;3.97;;;17.60;99.90;;;;;;2631269;39;20937;-79
2021/08/14 01:39:37;;;;;;;5.93;3.55;;;17.70;99.90;;;;;;2630894;54;20150;-79
2021/08/14 01:42:08;;;;;;;5.55;3.60;;;17.50;99.90;;;;;;2630838;54;20145;-78
2021/08/14 01:44:38;;;;;;;4.57;3.38;;;17.50;99.90;;;;;;2630762;46;21315;-79
2021/08/14 01:47:09;;;;;;;7.88;3.58;;;17.70;99.90;;;;;;2630945;54;20188;-79
2021/08/14 01:49:38;;;;;;;5.82;3.85;;;18.00;99.90;;;;;;2630551;47;22283;-79
2021/08/14 01:52:15;;;;;;;6.05;3.40;;;18.10;99.90;;;;;;2634461;39;20783;-78
2021/08/14 01:54:45;;;;;;;4.45;3.40;;;18.00;99.90;;;;;;2630340;54;20164;-78
2021/08/14 01:57:16;;;;;;;5.40;3.10;;;17.90;99.90;;;;;;2630856;54;20181;-79
2021/08/14 01:59:45;;;;;;;7.38;4.15;;;17.90;99.90;;;;;;2630957;47;20141;-78
2021/08/14 02:02:14;;;;;;;3.30;2.88;;;18.00;99.90;;;;;;2630923;47;20168;-79
2021/08/14 02:04:42;;;;;;;5.03;3.10;;;17.90;99.90;;;;;;2630723;47;20173;-79
2021/08/14 02:07:11;;;;;;;7.25;3.88;;;17.70;99.90;;;;;;2630282;47;20157;-79
2021/08/14 02:09:40;;;;;;;6.97;4.00;;;17.50;99.90;;;;;;2630817;47;20134;-79
2021/08/14 02:12:09;;;;;;;4.55;2.83;;;17.50;99.90;;;;;;2630819;54;20145;-80
2021/08/14 02:14:42;;;;;;;6.22;3.40;;;17.40;99.90;;;;;;2630627;47;20201;-78
2021/08/14 02:17:11;;;;;;;3.88;3.08;;;17.40;99.90;;;;;;2630655;47;20185;-78
2021/08/14 02:19:39;;;;;;;6.13;2.83;;;17.30;99.90;;;;;;2630739;47;20148;-78
2021/08/14 02:22:08;;;;;;;8.63;4.55;;;17.10;99.90;;;;;;2630766;54;20149;-78
2021/08/14 02:24:37;;;;;;;8.32;4.25;;;16.40;99.90;;;;;;2630076;47;20189;-78
2021/08/14 02:27:06;;;;;;;5.10;3.40;;;15.90;99.90;;;;;;2630436;47;20213;-78
2021/08/14 02:29:35;;;;;;;4.88;3.47;;;15.60;99.90;;;;;;2630647;47;20145;-78
2021/08/14 02:32:06;;;;;;;7.70;3.50;;;15.60;99.90;;;;;;2628514;54;20169;-79
2021/08/14 02:34:35;;;;;;;4.30;3.42;;;15.60;99.90;;;;;;2629832;47;20183;-78
2021/08/14 02:37:05;;;;;;;7.32;3.97;;;15.60;99.90;;;;;;2630661;54;20217;-79
2021/08/14 02:39:34;;;;;;;7.70;3.75;;;15.60;99.90;;;;;;2630686;47;20137;-78
2021/08/14 02:42:03;;;;;;;7.03;3.95;;;15.70;99.90;;;;;;2630549;54;20145;-78
2021/08/14 02:44:32;;;;;;;6.20;3.78;;;15.70;99.90;;;;;;2629853;47;20196;-80
2021/08/14 02:47:00;;;;;;;8.45;4.00;;;15.40;99.90;;;;;;2630538;54;20141;-78
2021/08/14 02:49:31;;;;;;;7.30;4.03;;;15.40;99.90;;;;;;2630239;54;20852;-78
2021/08/14 02:51:59;;;;;;;8.50;4.10;;;15.30;99.90;;;;;;2630590;47;20145;-77
2021/08/14 02:54:28;;;;;;;8.63;4.55;;;15.40;99.90;;;;;;2630462;47;20191;-77
2021/08/14 02:56:57;;;;;;;8.13;4.65;;;15.50;99.90;;;;;;2630523;54;20138;-77
2021/08/14 02:59:25;;;;;;;6.25;4.28;;;15.50;99.90;;;;;;2630582;47;20126;-78
2021/08/14 03:01:54;;;;;;;6.18;4.20;;;16.00;99.90;;;;;;2630592;47;20151;-77
2021/08/14 03:04:23;;;;;;;7.78;3.90;;;16.40;99.90;;;;;;2630077;54;20221;-77
2021/08/14 03:06:58;;;;;;;8.02;4.22;;;16.20;99.90;;;;;;2631067;47;20129;-78
2021/08/14 03:09:27;;;;;;;7.72;4.28;;;15.80;99.90;;;;;;2637202;39;20816;-79
2021/08/14 03:11:56;;;;;;;6.70;5.30;;;15.40;99.90;;;;;;2631389;54;20133;-78
2021/08/14 03:14:25;;;;;;;7.60;4.65;;;15.30;99.90;;;;;;2631148;54;20185;-78
2021/08/14 03:16:54;;;;;;;8.65;4.30;;;15.50;99.90;;;;;;2631371;47;20149;-79
2021/08/14 03:19:22;;;;;;;12.07;4.90;;;15.90;99.90;;;;;;2631382;54;20125;-78
2021/08/14 03:21:51;;;;;;;7.72;4.57;;;16.10;99.90;;;;;;2630932;46;20145;-79
2021/08/14 03:24:23;;;;;;;6.35;3.47;;;15.90;99.90;;;;;;2637832;39;20997;-79
2021/08/14 03:26:53;;;;;;;10.18;4.80;;;15.80;99.90;;;;;;2630624;54;20161;-78
2021/08/14 03:29:22;;;;;;;5.15;3.60;;;15.80;99.90;;;;;;2631329;46;20145;-78
2021/08/14 03:31:51;;;;;;;7.13;3.47;;;16.10;99.90;;;;;;2631425;54;20864;-78
2021/08/14 03:34:20;;;;;;;5.97;3.40;;;16.00;99.90;;;;;;2631166;54;20168;-78
2021/08/14 03:36:49;;;;;;;5.80;4.30;;;15.80;99.90;;;;;;2631016;54;20158;-78
2021/08/14 03:39:17;;;;;;;8.88;4.40;;;15.90;99.90;;;;;;2631267;47;20171;-79
2021/08/14 03:41:47;;;;;;;8.07;4.82;;;15.80;99.90;;;;;;2631325;54;20166;-78
2021/08/14 03:44:16;;;;;;;8.65;4.72;;;15.60;99.90;;;;;;2631203;47;20213;-78
2021/08/14 03:46:45;;;;;;;9.45;4.20;;;15.10;99.90;;;;;;2631307;47;20905;-78
2021/08/14 03:49:15;;;;;;;9.52;4.88;;;15.20;99.90;;;;;;2631284;47;20193;-78
2021/08/14 03:51:44;;;;;;;7.63;4.68;;;15.40;99.90;;;;;;2631203;54;20157;-78
2021/08/14 03:54:13;;;;;;;5.60;3.75;;;15.30;99.90;;;;;;2630851;54;20191;-77
2021/08/14 03:56:42;;;;;;;7.85;4.65;;;15.30;99.90;;;;;;2631089;47;20141;-78
2021/08/14 03:59:12;;;;;;;7.32;4.80;;;15.20;99.90;;;;;;2631164;47;20177;-77
2021/08/14 04:01:41;;;;;;;6.32;4.35;;;15.40;99.90;;;;;;2631299;46;20317;-78
2021/08/14 04:04:10;;;;;;;11.60;4.70;;;15.50;99.90;;;;;;2631331;54;20927;-79
2021/08/14 04:06:39;;;;;;;4.57;3.85;;;15.50;99.90;;;;;;2631124;47;20145;-78
2021/08/14 04:09:07;;;;;;;7.10;3.90;;;15.70;99.90;;;;;;2631184;47;20905;-79
2021/08/14 04:11:36;;;;;;;6.32;4.10;;;15.60;99.90;;;;;;2630914;47;20141;-78
2021/08/14 04:14:05;;;;;;;8.52;4.03;;;15.40;99.90;;;;;;2631141;54;20236;-78
2021/08/14 04:16:35;;;;;;;6.20;3.75;;;15.40;99.90;;;;;;2631124;47;20153;-79
2021/08/14 04:19:04;;;;;;;8.18;5.18;;;15.30;99.90;;;;;;2630800;47;20150;-77
2021/08/14 04:21:32;;;;;;;8.98;4.10;;;15.40;99.90;;;;;;2631320;54;20185;-78
2021/08/14 04:24:01;;;;;;;7.72;3.45;;;15.40;99.90;;;;;;2631218;47;20891;-78
2021/08/14 04:26:30;;;;;;;5.53;3.83;;;15.40;99.90;;;;;;2630811;47;20155;-78
2021/08/14 04:29:00;;;;;;;6.35;4.18;;;15.30;99.90;;;;;;2630687;47;20165;-78
2021/08/14 04:31:28;;;;;;;5.50;4.00;;;15.40;99.90;;;;;;2631274;47;20169;-78
2021/08/14 04:33:59;;;;;;;7.82;3.58;;;15.40;99.90;;;;;;2631159;54;20193;-78
2021/08/14 04:36:27;;;;;;;8.93;3.55;;;15.30;99.90;;;;;;2631113;47;20130;-78
2021/08/14 04:38:56;;;;;;;6.55;4.15;;;15.30;99.90;;;;;;2631126;47;20153;-78
2021/08/14 04:41:25;;;;;;;7.03;4.10;;;15.20;99.90;;;;;;2631275;46;20884;-77
2021/08/14 04:43:54;;;;;;;5.57;4.10;;;15.40;99.90;;;;;;2630963;54;20177;-78
2021/08/14 04:46:23;;;;;;;8.05;4.78;;;15.40;99.90;;;;;;2630665;47;20172;-78
2021/08/14 04:48:51;;;;;;;5.55;4.03;;;15.20;99.90;;;;;;2631140;47;20144;-78
2021/08/14 04:51:21;;;;;;;5.90;4.30;;;15.30;99.90;;;;;;2631105;54;20129;-77
2021/08/14 04:53:50;;;;;;;11.30;4.32;;;15.20;99.90;;;;;;2631092;51;20180;-77
2021/08/14 04:56:19;;;;;;;6.90;4.05;;;15.30;99.90;;;;;;2630795;47;20145;-79
2021/08/14 04:58:48;;;;;;;7.00;4.28;;;15.20;99.90;;;;;;2631153;47;20141;-77
2021/08/14 05:01:16;;;;;;;6.32;4.32;;;15.30;99.90;;;;;;2630428;54;20157;-78
2021/08/14 05:03:45;;;;;;;8.55;4.57;;;15.50;99.90;;;;;;2631042;47;20129;-79
2021/08/14 05:06:14;;;;;;;8.77;4.75;;;15.60;99.90;;;;;;2631058;46;20125;-77
2021/08/14 05:08:44;;;;;;;8.02;4.05;;;15.80;99.90;;;;;;2631081;54;20153;-78
2021/08/14 05:11:13;;;;;;;4.55;3.55;;;15.80;99.90;;;;;;2631109;54;20156;-79
2021/08/14 05:13:41;;;;;;;11.05;4.57;;;16.00;99.90;;;;;;2632910;46;20188;-78
2021/08/14 05:16:10;;;;;;;8.10;4.55;;;15.80;99.90;;;;;;2630449;46;20137;-79
2021/08/14 05:18:39;;;;;;;5.88;3.83;;;15.80;99.90;;;;;;2630930;54;20205;-79
2021/08/14 05:21:08;;;;;;;6.75;4.25;;;15.90;99.90;;;;;;2631083;47;20197;-78
2021/08/14 05:23:36;;;;;;;7.55;4.22;;;15.90;99.90;;;;;;2630997;54;20130;-78
2021/08/14 05:26:07;;;;;;;8.80;3.70;;;15.90;99.90;;;;;;2630897;54;20129;-78
2021/08/14 05:28:35;;;;;;;7.10;4.30;;;16.10;99.90;;;;;;2630893;54;20135;-78
2021/08/14 05:31:04;;;;;;;8.68;4.22;;;16.00;99.90;;;;;;2630610;47;20159;-77
2021/08/14 05:33:33;;;;;;;14.10;5.20;;;16.10;99.90;;;;;;2630916;47;20154;-79
2021/08/14 05:36:02;;;;;;;6.03;4.53;;;16.20;99.90;;;;;;2630924;54;20168;-78
2021/08/14 05:38:31;;;;;;;6.55;3.47;;;16.40;99.90;;;;;;2630788;47;20880;-78
2021/08/14 05:40:59;;;;;;;8.15;3.70;;;16.40;99.90;;;;;;2635605;39;20830;-78
2021/08/14 05:43:30;;;;;;;10.07;4.10;;;16.50;99.90;;;;;;2630973;47;20126;-78
2021/08/14 05:45:59;;;;;;;10.15;4.45;;;16.50;99.90;;;;;;2630498;54;20190;-78
2021/08/14 05:48:27;;;;;;;11.32;5.63;;;16.60;99.90;;;;;;2630592;47;20138;-78
2021/08/14 05:50:56;;;;;;;10.35;3.85;;;16.90;99.90;;;;;;2630616;54;20133;-78
2021/08/14 05:53:25;;;;;;;8.98;4.00;;;16.90;99.90;;;;;;2630966;54;20142;-79
2021/08/14 05:55:54;;;;;;;7.15;3.22;;;17.10;99.90;;;;;;2630783;47;20142;-78
2021/08/14 05:58:23;;;;;;;6.60;3.70;;;17.10;99.90;;;;;;2630832;47;21086;-78
2021/08/14 06:00:53;;;;;;;10.48;3.47;;;17.20;99.90;;;;;;2630990;47;20133;-77
2021/08/14 06:03:22;;;;;;;10.10;5.00;;;17.20;99.90;;;;;;2630794;47;20156;-79
2021/08/14 06:05:51;;;;;;;8.68;3.78;;;17.20;99.90;;;;;;2630342;54;20187;-79
2021/08/14 06:08:20;;;;;;;7.88;3.67;;;17.10;99.90;;;;;;2630830;46;20153;-79
2021/08/14 06:10:48;;;;;;;6.20;3.78;;;17.00;99.90;;;;;;2632529;39;20382;-78
2021/08/14 06:13:17;;;;;;;10.98;4.68;;;17.20;99.90;;;;;;2630861;47;20145;-78
2021/08/14 06:15:46;;;;;;;10.60;4.25;;;17.20;99.90;;;;;;2630468;47;20168;-79
2021/08/14 06:18:16;;;;;;;8.27;4.93;;;17.40;99.90;;;;;;2630783;46;20136;-78
2021/08/14 06:20:45;;;;;;;5.55;4.00;;;17.40;99.90;;;;;;2630934;47;20136;-78
2021/08/14 06:23:14;;;;;;;9.27;3.78;;;17.50;99.90;;;;;;2630352;54;20205;-78
2021/08/14 06:25:43;;;;;;;8.00;4.30;;;17.80;99.90;;;;;;2630623;54;20188;-78
2021/08/14 06:28:12;;;;;;;8.10;4.22;;;17.50;99.90;;;;;;2630772;47;20146;-79
2021/08/14 06:30:41;;;;;;;8.70;3.70;;;17.60;99.90;;;;;;2630823;47;20156;-79
2021/08/14 06:33:09;;;;;;;6.65;4.07;;;17.60;99.90;;;;;;2630772;47;20832;-78
2021/08/14 06:35:39;;;;;;;8.75;3.67;;;17.80;99.90;;;;;;2630406;47;20184;-77
2021/08/14 06:38:08;;;;;;;8.13;4.43;;;18.10;99.90;;;;;;2630412;54;20156;-79
2021/08/14 06:40:37;;;;;;;6.90;3.33;;;18.20;99.90;;;;;;2630771;47;20188;-79
2021/08/14 06:43:06;;;;;;;7.60;4.15;;;18.30;99.90;;;;;;2631591;54;20134;-79
2021/08/14 06:45:35;;;;;;;9.50;4.85;;;18.40;99.90;;;;;;2631305;47;20288;-77
2021/08/14 06:48:04;;;;;;;6.57;3.67;;;18.70;99.90;;;;;;2631504;54;20172;-78
2021/08/14 06:50:34;;;;;;;4.63;3.75;;;18.80;99.90;;;;;;2631526;46;20141;-79
2021/08/14 06:53:04;;;;;;;9.32;3.55;;;19.00;99.90;;;;;;2631614;54;20156;-78
2021/08/14 06:55:33;;;;;;;9.43;3.78;;;19.20;99.90;;;;;;2631228;54;20208;-78
2021/08/14 06:58:02;;;;;;;8.82;3.88;;;19.30;99.90;;;;;;2631461;54;20229;-78
2021/08/14 07:00:31;;;;;;;10.45;3.90;;;19.30;99.90;;;;;;2631300;47;20133;-79
2021/08/14 07:03:00;;;;;;;9.57;3.53;;;19.20;99.90;;;;;;2633051;46;20231;-78
2021/08/14 07:05:29;;;;;;;9.65;3.60;;;19.20;99.90;;;;;;2631214;47;20185;-78
2021/08/14 07:07:58;;;;;;;8.45;4.03;;;19.30;99.90;;;;;;2640724;39;20878;-78
2021/08/14 07:10:28;;;;;;;7.28;4.25;;;19.40;99.90;;;;;;2631038;54;20213;-79
2021/08/14 07:12:57;;;;;;;10.90;5.25;;;19.50;99.90;;;;;;2631478;54;20176;-78
2021/08/14 07:15:26;;;;;;;13.45;4.65;;;19.70;99.90;;;;;;2631348;47;20153;-80
2021/08/14 07:17:55;;;;;;;9.75;3.40;;;19.90;99.90;;;;;;2641882;39;20807;-79
2021/08/14 07:20:23;;;;;;;9.98;4.10;;;20.10;99.90;;;;;;2631508;54;20201;-79
2021/08/14 07:22:52;;;;;;;8.25;3.50;;;19.80;99.90;;;;;;2633297;46;20149;-80
2021/08/14 07:25:21;;;;;;;7.05;3.33;;;19.70;99.90;;;;;;2631380;51;20188;-79
2021/08/14 07:27:51;;;;;;;11.50;4.07;;;19.80;99.90;;;;;;2630913;47;20165;-78
2021/08/14 07:30:20;;;;;;;9.35;4.50;;;19.90;99.90;;;;;;2634152;46;21017;-79
2021/08/14 07:32:49;;;;;;;12.02;3.92;;;19.70;99.90;;;;;;2633384;39;20803;-79
2021/08/14 07:35:18;;;;;;;8.98;3.65;;;20.00;99.90;;;;;;2631292;47;20181;-79
2021/08/14 07:37:48;;;;;;;5.78;3.20;;;20.20;99.90;;;;;;2631431;54;20165;-79
2021/08/14 07:40:23;;;;;;;9.70;3.65;;;20.10;99.90;;;;;;2631368;54;20169;-80
2021/08/14 07:42:54;;;;;;;10.00;3.58;;;20.20;99.90;;;;;;2631080;47;20172;-81
2021/08/14 07:45:23;;;;;;;12.65;4.20;;;20.20;99.90;;;;;;2631200;47;20189;-79
2021/08/14 07:47:53;;;;;;;6.80;3.60;;;20.20;99.90;;;;;;2630933;47;20136;-79
2021/08/14 07:50:24;;;;;;;7.70;3.42;;;20.30;99.90;;;;;;2630896;46;20180;-78
2021/08/14 07:52:54;;;;;;;10.98;3.90;;;20.40;99.90;;;;;;2630885;47;20133;-80
2021/08/14 07:55:24;;;;;;;10.05;3.55;;;20.50;99.90;;;;;;2631003;46;20157;-79
2021/08/14 07:57:54;;;;;;;9.40;3.35;;;20.60;99.90;;;;;;2630197;54;20960;-78
2021/08/14 08:00:26;;;;;;;10.95;4.05;;;20.60;99.90;;;;;;2631128;54;20136;-79
2021/08/14 08:02:55;;;;;;;10.82;3.95;;;20.80;99.90;;;;;;2631253;46;20141;-80
2021/08/14 08:05:25;;;;;;;6.70;3.42;;;20.80;99.90;;;;;;2630809;54;20165;-79
2021/08/14 08:07:54;;;;;;;8.23;4.40;;;20.70;99.90;;;;;;2631153;54;20193;-79
2021/08/14 08:10:24;;;;;;;10.43;3.33;;;20.70;99.90;;;;;;2631108;47;20145;-78
2021/08/14 08:12:54;;;;;;;10.77;3.90;;;20.80;99.90;;;;;;2631201;46;20149;-79
2021/08/14 08:15:23;;;;;;;7.82;3.63;;;20.70;99.90;;;;;;2630534;46;20236;-78
2021/08/14 08:17:53;;;;;;;10.63;4.00;;;20.90;99.90;;;;;;2631115;54;20145;-79
2021/08/14 08:20:23;;;;;;;6.97;3.80;;;20.80;99.90;;;;;;2631051;54;20228;-79
2021/08/14 08:22:52;;;;;;;8.88;3.53;;;20.80;99.90;;;;;;2631090;47;20252;-78
2021/08/14 08:25:22;;;;;;;6.47;3.25;;;20.80;99.90;;;;;;2630953;54;20171;-79
2021/08/14 08:27:52;;;;;;;11.75;4.53;;;20.90;99.90;;;;;;2631143;46;20125;-78
2021/08/14 08:30:23;;;;;;;7.50;4.65;;;20.80;99.90;;;;;;2631003;46;20145;-78
2021/08/14 08:32:51;;;;;;;11.52;6.20;;;20.90;99.90;;;;;;2630672;54;20172;-78
2021/08/14 08:35:20;;;;;;;13.77;6.93;;;21.10;99.90;;;;;;2630611;54;20181;-80
2021/08/14 08:37:49;;;;;;;12.32;6.32;;;21.20;99.90;;;;;;2630075;47;20165;-79
2021/08/14 08:40:20;;;;;;;14.13;6.68;;;21.40;99.90;;;;;;2630846;54;20184;-79
2021/08/14 08:42:50;;;;;;;11.98;6.55;;;21.70;99.90;;;;;;2630765;54;20217;-80
2021/08/14 08:45:19;;;;;;;10.43;6.53;;;22.00;99.90;;;;;;2627780;31;20777;-76
2021/08/14 08:47:50;;;;;;;9.68;5.70;;;22.30;99.90;;;;;;2625430;54;20157;-74
2021/08/14 08:50:19;;;;;;;8.45;5.20;;;22.60;99.90;;;;;;2624863;47;20171;-74
2021/08/14 08:52:47;;;;;;;14.82;6.97;;;22.60;99.90;;;;;;2625578;54;20240;-74
2021/08/14 08:55:17;;;;;;;13.27;8.05;;;22.90;99.90;;;;;;2623933;47;20216;-74
2021/08/14 08:57:46;;;;;;;13.93;6.45;;;22.70;99.90;;;;;;2628010;39;20601;-75
2021/08/14 09:00:17;;;;;;;13.07;9.32;;;22.60;99.90;;;;;;2624583;47;20181;-75
2021/08/14 09:02:47;;;;;;;14.20;8.23;;;22.60;99.90;;;;;;2626898;46;20238;-78
2021/08/14 09:05:20;;;;;;;14.52;7.50;;;22.50;99.90;;;;;;2630493;46;20178;-78
2021/08/14 09:07:50;;;;;;;15.75;7.13;;;22.20;99.90;;;;;;2636539;39;20671;-79
2021/08/14 09:10:21;;;;;;;11.35;7.13;;;22.30;99.90;;;;;;2631335;39;20689;-77
2021/08/14 09:12:50;;;;;;;10.55;5.78;;;22.30;99.90;;;;;;2631490;46;20140;-77
2021/08/14 09:15:30;;;;;;;11.10;6.82;;;22.60;99.90;;;;;;2627737;47;20196;-77
2021/08/14 09:18:02;;;;;;;12.80;5.80;;;22.50;99.90;;;;;;2629656;54;20161;-79
2021/08/14 09:20:33;;;;;;;12.48;5.60;;;22.50;99.90;;;;;;2630059;54;20482;-81
2021/08/14 09:23:04;;;;;;;12.27;6.18;;;22.60;99.90;;;;;;2629196;47;20184;-77
2021/08/14 09:25:41;;;;;;;9.00;6.32;;;22.40;99.90;;;;;;2628544;54;20177;-76
2021/08/14 09:28:12;;;;;;;6.68;5.53;;;22.40;99.90;;;;;;2629174;47;20671;-77
2021/08/14 09:30:52;;;;;;;10.40;5.95;;;22.30;99.90;;;;;;2630187;47;20125;-76
2021/08/14 09:33:24;;;;;;;8.48;5.60;;;22.20;99.90;;;;;;2630697;54;20122;-77
2021/08/14 09:36:00;;;;;;;11.32;5.47;;;22.20;99.90;;;;;;2630554;47;20201;-78
2021/08/14 09:38:41;;;;;;;12.50;4.80;;;22.20;99.90;;;;;;2630142;54;20168;-80
2021/08/14 09:41:11;;;;;;;9.05;4.78;;;22.60;99.90;;;;;;2630870;46;20152;-78
2021/08/14 09:43:40;;;;;;;10.52;5.07;;;22.80;99.90;;;;;;2631106;54;20136;-79
2021/08/14 09:46:09;;;;;;;6.50;4.88;;;23.00;99.90;;;;;;2631076;54;20168;-80
2021/08/14 09:48:40;;;;;;;7.75;4.40;;;23.20;99.90;;;;;;2629815;54;20204;-82
2021/08/14 09:51:28;;;;;;;7.28;4.10;;;23.40;99.90;;;;;;2630265;47;20256;-80
2021/08/14 09:56:40;;;;;;;9.85;4.68;;;23.90;99.90;;;;;;2624407;54;20276;-79
2021/08/14 09:59:10;;;;;;;7.63;4.32;;;24.10;99.90;;;;;;2630535;47;20900;-78
2021/08/14 10:07:02;;;;;;;11.60;4.80;;;24.30;99.90;;;;;;2629731;54;20199;-80
2021/08/14 10:20:31;;;;;;;7.47;3.97;;;24.40;99.90;;;;;;2625588;54;20205;-80
2021/08/14 10:23:00;;;;;;;7.43;4.70;;;24.50;99.90;;;;;;2655092;39;21179;-81
2021/08/14 10:25:37;;;;;;;7.70;4.30;;;24.70;99.90;;;;;;2604326;47;20177;31
2021/08/14 10:28:07;;;;;;;7.78;3.95;;;24.70;99.90;;;;;;2628307;47;20256;-80
2021/08/14 10:41:58;;;;;;;6.60;3.85;;;24.70;99.90;;;;;;2612423;39;20499;31
2021/08/14 10:52:38;;;;;;;8.00;4.35;;;25.20;99.90;;;;;;2601564;54;20499;31
2021/08/14 10:55:14;;;;;;;10.85;5.15;;;25.30;99.90;;;;;;2602039;39;21318;31
2021/08/14 10:57:52;;;;;;;6.82;4.63;;;25.70;99.90;;;;;;2628716;47;20215;-80
2021/08/14 11:03:04;;;;;;;7.53;4.55;;;26.00;99.90;;;;;;2620164;54;20243;31
2021/08/14 11:05:34;;;;;;;6.82;4.47;;;25.90;99.90;;;;;;2601662;54;21589;31
2021/08/14 11:10:30;;;;;;;6.40;4.45;;;25.90;99.90;;;;;;2601517;47;20971;31
2021/08/14 11:13:25;;;;;;;7.82;4.93;;;25.80;99.90;;;;;;2601966;39;20558;31
2021/08/14 11:15:54;;;;;;;8.77;4.47;;;25.90;99.90;;;;;;2629742;54;20213;-74
2021/08/14 11:18:58;;;;;;;8.40;4.30;;;26.00;99.90;;;;;;2629644;54;20152;-77
2021/08/14 11:21:43;;;;;;;7.13;4.75;;;26.40;99.90;;;;;;2630107;54;20137;-78
2021/08/14 11:24:12;;;;;;;7.80;5.28;;;26.50;99.90;;;;;;2630233;54;20149;-80
2021/08/14 11:26:41;;;;;;;7.30;4.00;;;26.60;99.90;;;;;;2629946;54;20155;-78
2021/08/14 11:29:11;;;;;;;9.77;5.00;;;26.70;99.90;;;;;;2631113;54;20153;-78
2021/08/14 11:31:39;;;;;;;8.90;4.25;;;26.80;99.90;;;;;;2631074;54;20145;-77
2021/08/14 11:34:14;;;;;;;5.97;4.50;;;27.00;99.90;;;;;;2630627;47;20170;-77
2021/08/14 11:36:43;;;;;;;8.40;3.75;;;26.80;99.90;;;;;;2630726;46;20148;-76
2021/08/14 11:39:12;;;;;;;6.30;4.00;;;26.80;99.90;;;;;;2630988;54;20157;-77
2021/08/14 11:41:44;;;;;;;8.38;4.32;;;26.90;99.90;;;;;;2630979;47;20919;-76
2021/08/14 11:44:14;;;;;;;5.40;4.20;;;27.10;99.90;;;;;;2631018;54;20136;-78
2021/08/14 11:46:44;;;;;;;8.38;4.18;;;27.20;99.90;;;;;;2630472;47;20157;-77
2021/08/14 11:49:14;;;;;;;9.15;4.68;;;27.10;99.90;;;;;;2630957;47;20250;-77
2021/08/14 11:51:43;;;;;;;5.97;3.97;;;27.10;99.90;;;;;;2630704;46;20146;-78
2021/08/14 11:54:14;;;;;;;8.52;4.97;;;27.30;99.90;;;;;;2629709;47;20157;-79
2021/08/14 11:56:43;;;;;;;7.45;3.95;;;27.60;99.90;;;;;;2630906;54;20173;-79
2021/08/14 11:59:11;;;;;;;12.13;4.78;;;27.40;99.90;;;;;;2630708;51;20137;-77
2021/08/14 12:01:41;;;;;;;9.60;4.13;;;27.50;99.90;;;;;;2630450;54;20166;-76
2021/08/14 12:04:11;;;;;;;5.70;4.70;;;28.10;99.90;;;;;;2629723;47;20169;-77
2021/08/14 12:06:41;;;;;;;7.35;4.20;;;28.30;99.90;;;;;;2627327;39;20608;-75
2021/08/14 12:09:10;;;;;;;5.88;4.30;;;28.70;99.90;;;;;;2628696;47;20173;-76
2021/08/14 12:11:40;;;;;;;8.27;4.45;;;28.70;99.90;;;;;;2627966;54;20148;-78
2021/08/14 12:14:19;;;;;;;10.85;4.25;;;28.50;99.90;;;;;;2627310;46;20218;-75
2021/08/14 12:16:49;;;;;;;10.70;4.57;;;28.30;99.90;;;;;;2628620;54;20133;-76
2021/08/14 12:19:20;;;;;;;7.35;4.82;;;27.80;99.90;;;;;;2629517;47;20145;-78
2021/08/14 12:21:52;;;;;;;7.30;3.80;;;27.50;99.90;;;;;;2628436;54;20166;-76
2021/08/14 12:24:28;;;;;;;4.70;3.35;;;27.40;99.90;;;;;;2629869;54;20746;-77
2021/08/14 12:26:56;;;;;;;7.63;4.63;;;27.80;99.90;;;;;;2628772;47;20168;-76
2021/08/14 12:29:27;;;;;;;6.80;4.25;;;27.70;99.90;;;;;;2628389;54;20159;-74
2021/08/14 12:31:58;;;;;;;6.30;3.97;;;28.00;99.90;;;;;;2629169;54;20138;-77
2021/08/14 12:34:30;;;;;;;5.53;3.83;;;28.10;99.90;;;;;;2628453;46;20172;-75
2021/08/14 12:37:05;;;;;;;11.82;3.97;;;27.90;99.90;;;;;;2629182;54;20152;-76
2021/08/14 12:39:55;;;;;;;8.52;4.78;;;27.70;99.90;;;;;;2629945;54;20217;-75
2021/08/14 12:42:25;;;;;;;5.93;3.95;;;27.70;99.90;;;;;;2630554;54;21015;-76
2021/08/14 12:44:54;;;;;;;6.30;4.15;;;28.20;99.90;;;;;;2629954;46;20153;-77
2021/08/14 12:47:30;;;;;;;4.35;3.50;;;28.30;99.90;;;;;;2628987;54;20160;-77
2021/08/14 12:50:14;;;;;;;6.10;3.75;;;28.20;99.90;;;;;;2630276;47;20141;-77
2021/08/14 12:52:56;;;;;;;11.05;4.25;;;28.20;99.90;;;;;;2629164;46;20141;-78
2021/08/14 12:58:08;;;;;;;8.00;3.85;;;28.30;99.90;;;;;;2628631;54;20146;-78
2021/08/14 13:00:39;;;;;;;7.60;4.15;;;28.50;99.90;;;;;;2633573;39;20653;-78
2021/08/14 13:03:09;;;;;;;11.73;4.20;;;28.20;99.90;;;;;;2629756;54;20857;-77
2021/08/14 13:05:38;;;;;;;6.85;4.15;;;28.00;99.90;;;;;;2633582;39;20806;-79
2021/08/14 13:08:10;;;;;;;9.25;3.58;;;28.40;99.90;;;;;;2630066;47;20137;-79
2021/08/14 13:10:41;;;;;;;7.28;4.13;;;28.40;99.90;;;;;;2630114;47;20141;-78
2021/08/14 13:13:12;;;;;;;8.75;4.03;;;28.50;99.90;;;;;;2630650;54;20149;-77
2021/08/14 13:15:42;;;;;;;8.93;3.90;;;28.50;99.90;;;;;;2630674;46;20157;-79
2021/08/14 13:18:11;;;;;;;9.32;4.20;;;28.70;99.90;;;;;;2630413;54;20218;-78
2021/08/14 13:20:40;;;;;;;4.20;2.70;;;28.50;99.90;;;;;;2630751;54;20125;-80
2021/08/14 13:23:11;;;;;;;10.05;3.80;;;28.40;99.90;;;;;;2631043;46;20153;-78
2021/08/14 13:25:39;;;;;;;6.45;3.55;;;28.40;99.90;;;;;;2630799;47;20145;-78
2021/08/14 13:28:09;;;;;;;7.40;4.03;;;28.70;99.90;;;;;;2630626;54;20133;-79
2021/08/14 13:30:38;;;;;;;8.35;3.88;;;28.60;99.90;;;;;;2630965;54;20160;-78
2021/08/14 13:33:07;;;;;;;6.82;3.80;;;28.40;99.90;;;;;;2631022;54;20148;-78
2021/08/14 13:35:35;;;;;;;5.53;3.88;;;28.80;99.90;;;;;;2630413;47;20193;-78
2021/08/14 13:38:05;;;;;;;5.50;4.05;;;28.40;99.90;;;;;;2630717;47;20141;-78
2021/08/14 13:40:36;;;;;;;5.65;3.33;;;28.50;99.90;;;;;;2631059;47;20218;-79
2021/08/14 13:43:05;;;;;;;6.88;4.07;;;28.80;99.90;;;;;;2630957;47;20141;-79
2021/08/14 13:45:33;;;;;;;9.20;3.67;;;29.20;99.90;;;;;;2630607;47;20172;-79
2021/08/14 13:48:02;;;;;;;10.45;4.00;;;29.00;99.90;;;;;;2630916;54;20151;-80